This is the latest recevied weather packets stored in our database for station/object SQ9CIE-4. If no packets are shown the sender has not sent any weather packets the latest 1 day(s).
| Time | Temp. | Humidity | Pressure | Rain* | Wind** | Luminosity | Snow |
|---|---|---|---|---|---|---|---|
| 1778052659 | 17.78° C | 59% | 1005.7 hPa | 0 mm | - | 383 W/m² | - |
| 1778052058 | 17.78° C | 59% | 1005.7 hPa | 0 mm | - | 451 W/m² | - |
| 1778051759 | 17.78° C | 60% | 1005.7 hPa | 0 mm | - | 441 W/m² | - |
| 1778051459 | 17.78° C | 60% | 1005.6 hPa | 0 mm | - | 424 W/m² | - |
| 1778050859 | 17.78° C | 60% | 1005.7 hPa | 0 mm | - | 406 W/m² | - |
| 1778050259 | 17.78° C | 60% | 1005.6 hPa | 0 mm | - | 382 W/m² | - |
| 1778049659 | 17.22° C | 61% | 1005.7 hPa | 0 mm | - | 358 W/m² | - |
| 1778049059 | 17.22° C | 60% | 1005.7 hPa | 0 mm | - | 332 W/m² | - |
| 1778048759 | 17.22° C | 61% | 1005.7 hPa | 0 mm | - | 326 W/m² | - |
| 1778048459 | 17.22° C | 61% | 1005.6 hPa | 0 mm | - | 314 W/m² | - |
| 1778048159 | 17.22° C | 61% | 1005.6 hPa | 0 mm | - | 302 W/m² | - |
| 1778047859 | 17.22° C | 61% | 1005.5 hPa | 0 mm | - | 290 W/m² | - |
| 1778047559 | 17.22° C | 61% | 1005.5 hPa | 0 mm | - | 278 W/m² | - |
| 1778047259 | 17.22° C | 61% | 1005.4 hPa | 0 mm | - | 267 W/m² | - |
| 1778045763 | 16.11° C | 63% | 1005.6 hPa | 0 mm | - | 205 W/m² | - |
| 1778044859 | 16.11° C | 63% | 1005.9 hPa | 0 mm | - | 73 W/m² | - |
| 1778044559 | 16.11° C | 63% | 1005.6 hPa | 0 mm | - | 157 W/m² | - |
| 1778043959 | 16.11° C | 63% | 1005.7 hPa | 0 mm | - | 134 W/m² | - |
| 1778043659 | 16.11° C | 64% | 1005.6 hPa | 0 mm | - | 122 W/m² | - |
| 1778043058 | 15° C | 64% | 1005.8 hPa | 0 mm | - | 98 W/m² | - |
| 1778042458 | 16.11° C | 62% | 1005.7 hPa | 0 mm | - | 75 W/m² | - |
| 1778040658 | 15° C | 64% | 1005.8 hPa | 0 mm | - | 29 W/m² | - |
| 1778040059 | 13.89° C | 65% | 1005.9 hPa | 0 mm | - | 19 W/m² | - |
| 1778039458 | 13.89° C | 64% | 1005.6 hPa | 0 mm | - | 16 W/m² | - |
| 1778039158 | 13.89° C | 64% | 1005.8 hPa | 0 mm | - | 15 W/m² | - |
* Rain latest hour (hover to see other rain measurements)
** Current wind speed in m/s (hover to see current wind gust speed)